Time;durP1;ratioP1;P1;durP2;ratioP2;P2;SDS_P1;SDS_P2;PMS_P1;PMS_P2;Temp;Humidity;BMP_temperature;BMP_pressure;BME280_temperature;BME280_humidity;BME280_pressure;Samples;Min_cycle;Max_cycle;Signal;HPM_P1;HPM_P2
2023/10/17 00:01:16;;;;;;;3.80;2.00;;;;;;;;;;5051051;28;19917;-62
2023/10/17 00:03:44;;;;;;;4.50;1.45;;;;;;;;;;5050141;28;20087;-62
2023/10/17 00:06:13;;;;;;;6.63;2.30;;;;;;;;;;5032689;28;20045;-62
2023/10/17 00:08:39;;;;;;;3.95;2.20;;;;;;;;;;5033071;28;20041;-62
2023/10/17 00:11:20;;;;;;;3.55;1.90;;;;;;;;;;5050559;28;20045;-62
2023/10/17 00:13:59;;;;;;;4.07;1.88;;;;;;;;;;5050804;28;20116;-62
2023/10/17 00:16:26;;;;;;;7.25;2.20;;;;;;;;;;5050681;28;20056;-62
2023/10/17 00:18:52;;;;;;;3.75;2.00;;;;;;;;;;5050076;28;20167;-62
2023/10/17 00:21:22;;;;;;;5.07;2.10;;;;;;;;;;5050596;28;20037;-62
2023/10/17 00:23:50;;;;;;;4.38;1.73;;;;;;;;;;5050456;28;20068;-62
2023/10/17 00:26:18;;;;;;;3.90;1.95;;;;;;;;;;5050141;28;20106;-62
2023/10/17 00:28:45;;;;;;;4.63;2.13;;;;;;;;;;5050704;28;20094;-62
2023/10/17 00:31:12;;;;;;;4.80;2.28;;;;;;;;;;5050814;28;20063;-62
2023/10/17 00:33:41;;;;;;;2.83;2.03;;;;;;;;;;5050366;28;20041;-62
2023/10/17 00:36:14;;;;;;;4.53;2.20;;;;;;;;;;5050532;28;20050;-62
2023/10/17 00:38:43;;;;;;;2.97;2.10;;;;;;;;;;5050493;28;20430;-62
2023/10/17 00:41:09;;;;;;;2.90;1.90;;;;;;;;;;5050107;28;20103;-62
2023/10/17 00:43:35;;;;;;;3.38;2.03;;;;;;;;;;5050430;28;20040;-62
2023/10/17 00:46:01;;;;;;;2.80;2.10;;;;;;;;;;5050588;28;20041;-62
2023/10/17 00:48:28;;;;;;;5.00;1.65;;;;;;;;;;5050132;28;20037;-62
2023/10/17 00:51:06;;;;;;;5.40;2.30;;;;;;;;;;5052689;28;20052;-62
2023/10/17 00:53:32;;;;;;;5.63;2.00;;;;;;;;;;5053746;28;20053;-62
2023/10/17 00:55:59;;;;;;;4.18;1.60;;;;;;;;;;5053605;28;20036;-62
2023/10/17 00:58:27;;;;;;;4.00;2.10;;;;;;;;;;5053959;28;20063;-62
2023/10/17 01:00:54;;;;;;;2.67;1.55;;;;;;;;;;5054046;28;20049;-62
2023/10/17 01:03:21;;;;;;;2.95;1.48;;;;;;;;;;5053444;28;20045;-62
2023/10/17 01:05:57;;;;;;;3.50;1.45;;;;;;;;;;5053613;28;20045;-62
2023/10/17 01:08:27;;;;;;;3.42;1.85;;;;;;;;;;5053914;28;20120;-62
2023/10/17 01:10:53;;;;;;;2.95;1.40;;;;;;;;;;5053500;28;20464;-62
2023/10/17 01:13:19;;;;;;;3.00;1.65;;;;;;;;;;5053678;28;20116;-62
2023/10/17 01:15:45;;;;;;;3.22;1.83;;;;;;;;;;5053361;28;20041;-62
2023/10/17 01:18:11;;;;;;;6.25;1.63;;;;;;;;;;5053065;28;20044;-62
2023/10/17 01:20:37;;;;;;;4.78;2.13;;;;;;;;;;5053248;28;20045;-62
2023/10/17 01:23:04;;;;;;;3.78;1.50;;;;;;;;;;5053437;28;20083;-62
2023/10/17 01:25:34;;;;;;;2.42;1.40;;;;;;;;;;5052988;28;20043;-62
2023/10/17 01:28:00;;;;;;;2.95;1.50;;;;;;;;;;5053461;28;20060;-62
2023/10/17 01:30:29;;;;;;;3.28;1.73;;;;;;;;;;5053232;28;20106;-62
2023/10/17 01:32:56;;;;;;;2.65;1.42;;;;;;;;;;5052924;28;20041;-62
2023/10/17 01:35:23;;;;;;;4.47;1.58;;;;;;;;;;5053141;28;20474;-62
2023/10/17 01:37:49;;;;;;;3.67;1.70;;;;;;;;;;5052812;28;20044;-62
2023/10/17 01:40:27;;;;;;;3.55;1.80;;;;;;;;;;5052849;28;20128;-62
2023/10/17 01:42:54;;;;;;;3.25;1.65;;;;;;;;;;5052842;28;20049;-62
2023/10/17 01:45:22;;;;;;;8.63;1.90;;;;;;;;;;5052731;28;20091;-62
2023/10/17 01:47:51;;;;;;;3.00;1.60;;;;;;;;;;5052743;28;20102;-62
2023/10/17 01:50:18;;;;;;;2.50;1.48;;;;;;;;;;5052971;28;20521;-62
2023/10/17 01:52:45;;;;;;;2.88;1.50;;;;;;;;;;5034940;28;20045;-62
2023/10/17 01:55:15;;;;;;;5.28;1.75;;;;;;;;;;5052473;28;20049;-62
2023/10/17 01:57:43;;;;;;;3.00;1.63;;;;;;;;;;5052812;28;20131;-62
2023/10/17 02:00:27;;;;;;;3.47;1.70;;;;;;;;;;5052609;28;20044;-62
2023/10/17 02:02:55;;;;;;;2.85;1.40;;;;;;;;;;5051420;28;20094;-62
2023/10/17 02:05:21;;;;;;;2.13;1.33;;;;;;;;;;5052611;28;20059;-62
2023/10/17 02:07:47;;;;;;;3.03;1.60;;;;;;;;;;5052413;28;20037;-62
2023/10/17 02:10:17;;;;;;;2.78;1.60;;;;;;;;;;5052301;28;20134;-62
2023/10/17 02:12:44;;;;;;;3.80;1.77;;;;;;;;;;5052658;28;20175;-62
2023/10/17 02:15:12;;;;;;;4.95;1.92;;;;;;;;;;5052428;28;20072;-62
2023/10/17 02:17:38;;;;;;;6.05;2.60;;;;;;;;;;5051916;28;20419;-62
2023/10/17 02:20:21;;;;;;;3.42;2.08;;;;;;;;;;5052365;28;20037;-62
2023/10/17 02:22:49;;;;;;;4.07;2.03;;;;;;;;;;5052311;28;20114;-62
2023/10/17 02:25:16;;;;;;;4.50;1.70;;;;;;;;;;5051828;28;20036;-62
2023/10/17 02:27:44;;;;;;;2.75;2.00;;;;;;;;;;5052055;28;20052;-62
2023/10/17 02:30:12;;;;;;;4.88;1.80;;;;;;;;;;5052290;28;20049;-62
2023/10/17 02:32:43;;;;;;;3.60;2.13;;;;;;;;;;5051545;28;20052;-62
2023/10/17 02:35:17;;;;;;;3.67;2.03;;;;;;;;;;5051864;28;20120;-62
2023/10/17 02:37:47;;;;;;;5.88;2.10;;;;;;;;;;5051730;28;20049;-62
2023/10/17 02:40:23;;;;;;;6.20;2.35;;;;;;;;;;5051719;28;20040;-62
2023/10/17 02:42:49;;;;;;;2.88;1.50;;;;;;;;;;5051805;28;20098;-62
2023/10/17 02:45:24;;;;;;;3.55;1.80;;;;;;;;;;5051894;28;20037;-62
2023/10/17 02:48:11;;;;;;;4.72;2.03;;;;;;;;;;5051634;28;20364;-62
2023/10/17 02:53:06;;;;;;;3.75;2.00;;;;;;;;;;5051695;28;20179;-62
2023/10/17 02:55:32;;;;;;;5.10;2.45;;;;;;;;;;5050973;28;20092;-62
2023/10/17 02:57:59;;;;;;;5.43;2.45;;;;;;;;;;5051731;28;20047;-62
2023/10/17 03:00:34;;;;;;;3.50;1.92;;;;;;;;;;5051451;28;20049;-62
2023/10/17 03:03:00;;;;;;;3.72;1.63;;;;;;;;;;5051222;28;20051;-62
2023/10/17 03:05:27;;;;;;;3.83;2.00;;;;;;;;;;5051474;28;20486;-62
2023/10/17 03:07:53;;;;;;;4.22;1.67;;;;;;;;;;5051555;28;20190;-62
2023/10/17 03:10:36;;;;;;;3.00;1.90;;;;;;;;;;5051185;28;20044;-62
2023/10/17 03:13:06;;;;;;;3.65;2.47;;;;;;;;;;5051321;28;20062;-62
2023/10/17 03:15:38;;;;;;;5.10;2.03;;;;;;;;;;5051053;28;20048;-62
2023/10/17 03:18:12;;;;;;;4.78;2.00;;;;;;;;;;5050972;28;20091;-62
2023/10/17 03:20:41;;;;;;;4.38;2.05;;;;;;;;;;5051385;28;20080;-62
2023/10/17 03:23:10;;;;;;;2.80;1.92;;;;;;;;;;5050975;28;20635;-62
2023/10/17 03:25:40;;;;;;;4.18;2.20;;;;;;;;;;5051122;28;20033;-62
2023/10/17 03:28:08;;;;;;;5.88;2.20;;;;;;;;;;5051331;28;20075;-62
2023/10/17 03:30:35;;;;;;;4.68;2.00;;;;;;;;;;5050824;28;20053;-62
2023/10/17 03:35:29;;;;;;;6.82;2.55;;;;;;;;;;5050998;28;20494;-62
2023/10/17 03:37:55;;;;;;;5.95;2.80;;;;;;;;;;5050668;28;20511;-62
2023/10/17 03:40:30;;;;;;;3.70;2.05;;;;;;;;;;5050946;28;20080;-62
2023/10/17 03:43:00;;;;;;;3.47;2.00;;;;;;;;;;5050999;28;20049;-62
2023/10/17 03:45:34;;;;;;;4.55;2.50;;;;;;;;;;5050646;28;20045;-62
2023/10/17 03:48:04;;;;;;;6.80;2.25;;;;;;;;;;5051018;28;20048;-62
2023/10/17 03:50:31;;;;;;;3.88;1.98;;;;;;;;;;5033003;28;20605;-62
2023/10/17 03:53:25;;;;;;;6.43;2.17;;;;;;;;;;5050330;28;20063;-62
2023/10/17 03:55:51;;;;;;;6.00;2.35;;;;;;;;;;5050965;28;20041;-62
2023/10/17 03:58:25;;;;;;;3.92;2.25;;;;;;;;;;5032914;28;20048;-62
2023/10/17 04:00:53;;;;;;;2.70;2.20;;;;;;;;;;5050787;28;20041;-62
2023/10/17 04:03:21;;;;;;;4.85;2.45;;;;;;;;;;5050859;28;20037;-62
2023/10/17 04:08:49;;;;;;;5.03;2.53;;;;;;;;;;5050536;28;20538;-62
2023/10/17 04:13:51;;;;;;;6.03;2.17;;;;;;;;;;5050907;28;20054;-62
2023/10/17 04:16:22;;;;;;;2.75;2.10;;;;;;;;;;5050286;28;20467;-62
2023/10/17 04:19:00;;;;;;;4.75;2.65;;;;;;;;;;5050589;28;20499;-62
2023/10/17 04:21:36;;;;;;;5.07;2.40;;;;;;;;;;5050694;28;20491;-62
2023/10/17 04:24:05;;;;;;;6.32;2.50;;;;;;;;;;5050366;28;20134;-62
2023/10/17 04:26:43;;;;;;;5.05;2.50;;;;;;;;;;5053757;28;20049;-62
2023/10/17 04:29:13;;;;;;;3.80;2.42;;;;;;;;;;5054579;28;20045;-62
2023/10/17 04:31:39;;;;;;;4.93;2.33;;;;;;;;;;5053839;28;20094;-62
2023/10/17 04:34:06;;;;;;;5.18;2.05;;;;;;;;;;5054069;28;20041;-62
2023/10/17 04:36:39;;;;;;;7.07;2.90;;;;;;;;;;5054312;28;20044;-62
2023/10/17 04:39:18;;;;;;;6.82;2.70;;;;;;;;;;5053911;28;20083;-62
2023/10/17 04:44:21;;;;;;;3.95;2.83;;;;;;;;;;5054045;28;20056;-62
2023/10/17 04:46:50;;;;;;;6.18;2.80;;;;;;;;;;5054127;28;20033;-62
2023/10/17 04:49:20;;;;;;;4.65;2.65;;;;;;;;;;5054121;28;20166;-62
2023/10/17 04:57:07;;;;;;;5.25;2.90;;;;;;;;;;5035955;28;20128;-62
2023/10/17 06:18:39;;;;;;;8.27;4.55;;;;;;;;;;5051055;28;20041;-62
2023/10/17 06:28:46;;;;;;;7.75;4.78;;;;;;;;;;5051473;28;20099;-60
2023/10/17 06:34:00;;;;;;;9.63;5.43;;;;;;;;;;5050768;28;20045;-60
2023/10/17 06:36:30;;;;;;;9.40;5.60;;;;;;;;;;5051109;28;20048;-61
2023/10/17 06:38:56;;;;;;;12.55;5.88;;;;;;;;;;5051293;28;20051;-61
2023/10/17 06:41:28;;;;;;;9.15;5.35;;;;;;;;;;5051361;28;20140;-60
2023/10/17 06:44:06;;;;;;;8.18;5.30;;;;;;;;;;5050732;28;20752;-60
2023/10/17 06:46:48;;;;;;;7.65;5.22;;;;;;;;;;5051104;28;20072;-60
2023/10/17 06:54:41;;;;;;;10.57;5.20;;;;;;;;;;5050768;28;20083;-61
2023/10/17 06:57:19;;;;;;;8.60;5.28;;;;;;;;;;5032600;28;20047;-60
2023/10/17 06:59:51;;;;;;;8.00;4.85;;;;;;;;;;5042546;28;20040;-62
2023/10/17 07:02:31;;;;;;;8.80;5.05;;;;;;;;;;5050564;28;20692;-60
2023/10/17 07:05:00;;;;;;;8.52;4.90;;;;;;;;;;5049535;28;20044;-61
2023/10/17 07:07:40;;;;;;;7.72;5.18;;;;;;;;;;5050334;28;20057;-62
2023/10/17 07:13:13;;;;;;;10.20;5.07;;;;;;;;;;5042088;28;20061;-59
2023/10/17 07:15:39;;;;;;;8.52;4.90;;;;;;;;;;5049734;28;20081;-63
2023/10/17 07:21:15;;;;;;;11.38;5.50;;;;;;;;;;5050027;28;20048;-63
2023/10/17 07:23:42;;;;;;;12.73;5.50;;;;;;;;;;5050206;28;20172;-63
2023/10/17 07:26:38;;;;;;;10.88;5.88;;;;;;;;;;5032451;28;20041;-63
2023/10/17 07:28:57;;;;;;;11.50;5.90;;;;;;;;;;5048637;28;20091;-63
2023/10/17 07:31:24;;;;;;;10.35;5.50;;;;;;;;;;5050510;28;20028;-63
2023/10/17 07:34:07;;;;;;;10.32;5.68;;;;;;;;;;5030300;28;20059;-63
2023/10/17 07:36:34;;;;;;;8.57;5.65;;;;;;;;;;5049597;28;20379;-64
2023/10/17 07:39:05;;;;;;;8.10;5.75;;;;;;;;;;5050018;28;20040;-64
2023/10/17 07:41:38;;;;;;;13.38;6.15;;;;;;;;;;5054442;28;20056;-63
2023/10/17 07:44:21;;;;;;;12.63;6.53;;;;;;;;;;5049597;28;20051;-60
2023/10/17 07:46:50;;;;;;;13.13;7.22;;;;;;;;;;5049722;28;20468;-62
2023/10/17 07:49:26;;;;;;;14.13;7.05;;;;;;;;;;5049637;28;20041;-61
2023/10/17 07:51:54;;;;;;;7.60;6.28;;;;;;;;;;5050050;28;20067;-63
2023/10/17 07:54:28;;;;;;;10.25;6.75;;;;;;;;;;5049709;28;20068;-62
2023/10/17 07:56:54;;;;;;;15.52;7.82;;;;;;;;;;5049421;28;20111;-61
2023/10/17 07:59:30;;;;;;;11.05;7.20;;;;;;;;;;5050074;28;20594;-62
2023/10/17 08:01:58;;;;;;;13.20;7.38;;;;;;;;;;5053955;28;20375;-61
2023/10/17 08:04:29;;;;;;;13.55;7.68;;;;;;;;;;5019444;28;20131;-60
2023/10/17 08:06:56;;;;;;;11.40;7.38;;;;;;;;;;5053557;28;20099;-61
2023/10/17 08:11:53;;;;;;;11.30;7.22;;;;;;;;;;5053509;28;20379;-61
2023/10/17 08:14:22;;;;;;;11.82;7.50;;;;;;;;;;5052049;28;20499;-59
2023/10/17 08:16:49;;;;;;;13.52;6.85;;;;;;;;;;5053471;28;20037;-59
2023/10/17 08:19:21;;;;;;;10.50;6.50;;;;;;;;;;5053207;28;20045;-61
2023/10/17 08:22:09;;;;;;;10.95;7.10;;;;;;;;;;5053173;28;20387;-61
2023/10/17 08:29:58;;;;;;;7.40;4.82;;;;;;;;;;5050850;28;20056;-60
2023/10/17 08:35:04;;;;;;;8.38;4.97;;;;;;;;;;5053353;28;20494;-61
2023/10/17 08:37:43;;;;;;;8.80;5.03;;;;;;;;;;5053059;28;20103;-58
2023/10/17 08:40:29;;;;;;;13.18;5.35;;;;;;;;;;5053280;28;20045;-59
2023/10/17 08:42:56;;;;;;;10.82;5.35;;;;;;;;;;5034822;28;20132;-60
2023/10/17 08:45:26;;;;;;;8.35;4.75;;;;;;;;;;5053022;28;20041;-60
2023/10/17 08:48:00;;;;;;;9.23;4.70;;;;;;;;;;5053183;28;20514;-60
2023/10/17 08:50:39;;;;;;;12.25;5.32;;;;;;;;;;5053059;28;20037;-60
2023/10/17 08:53:13;;;;;;;8.30;3.97;;;;;;;;;;5042837;28;20179;-62
2023/10/17 08:55:41;;;;;;;7.50;3.88;;;;;;;;;;5051412;28;20041;-62
2023/10/17 08:58:10;;;;;;;9.35;4.10;;;;;;;;;;5051331;28;20076;-62
2023/10/17 09:00:49;;;;;;;6.72;3.90;;;;;;;;;;5051812;28;20052;-59
2023/10/17 09:03:28;;;;;;;8.13;4.13;;;;;;;;;;5051998;28;20112;-60
2023/10/17 09:06:03;;;;;;;7.60;3.55;;;;;;;;;;5051243;28;20037;-61
2023/10/17 09:08:43;;;;;;;6.45;3.33;;;;;;;;;;5051538;28;20059;-61
2023/10/17 09:11:14;;;;;;;6.78;3.67;;;;;;;;;;5051174;28;20044;-59
2023/10/17 09:16:16;;;;;;;6.40;3.38;;;;;;;;;;5050906;28;20057;-62
2023/10/17 09:18:49;;;;;;;6.82;3.33;;;;;;;;;;5051160;28;20041;-60
2023/10/17 09:21:16;;;;;;;5.55;3.40;;;;;;;;;;5051005;28;20059;-61
2023/10/17 09:23:42;;;;;;;7.53;3.42;;;;;;;;;;5051620;28;20048;-62
2023/10/17 09:26:12;;;;;;;9.77;3.42;;;;;;;;;;5050824;28;20040;-61
2023/10/17 09:28:42;;;;;;;5.75;3.10;;;;;;;;;;5051326;28;20033;-62
2023/10/17 09:31:08;;;;;;;10.43;3.35;;;;;;;;;;5051351;28;20045;-62
2023/10/17 09:33:35;;;;;;;4.90;2.88;;;;;;;;;;5048529;28;20041;-61
2023/10/17 09:36:06;;;;;;;7.97;2.35;;;;;;;;;;5049798;28;20041;-59
2023/10/17 09:38:33;;;;;;;5.93;2.60;;;;;;;;;;5045446;28;20033;-58
2023/10/17 09:40:59;;;;;;;9.63;2.97;;;;;;;;;;5050778;28;20037;-61
2023/10/17 09:43:25;;;;;;;4.32;2.10;;;;;;;;;;5051502;28;20047;-61
2023/10/17 09:45:52;;;;;;;5.07;2.15;;;;;;;;;;5050962;28;20163;-61
2023/10/17 09:48:22;;;;;;;6.55;2.20;;;;;;;;;;5050550;28;20028;-60
2023/10/17 09:50:49;;;;;;;5.88;2.40;;;;;;;;;;5051309;28;20044;-59
2023/10/17 09:53:16;;;;;;;4.10;2.13;;;;;;;;;;5015013;28;1035104;-60
2023/10/17 09:55:46;;;;;;;4.03;1.58;;;;;;;;;;5051688;28;20491;-60
2023/10/17 09:58:17;;;;;;;3.55;1.90;;;;;;;;;;5033760;28;20415;-61
2023/10/17 10:00:46;;;;;;;4.15;1.92;;;;;;;;;;5051707;28;20045;-61
2023/10/17 10:03:13;;;;;;;7.32;2.08;;;;;;;;;;5051552;28;20037;-59
2023/10/17 10:05:39;;;;;;;5.55;1.85;;;;;;;;;;5051468;28;20048;-59
2023/10/17 10:08:24;;;;;;;4.72;1.70;;;;;;;;;;5051680;28;20168;-59
2023/10/17 10:10:55;;;;;;;3.00;1.40;;;;;;;;;;5031575;28;20038;-59
2023/10/17 10:13:21;;;;;;;4.32;1.25;;;;;;;;;;5046549;28;20043;-59
2023/10/17 10:15:47;;;;;;;3.70;1.15;;;;;;;;;;5051468;28;20124;-58
2023/10/17 10:18:14;;;;;;;7.07;1.65;;;;;;;;;;5050950;28;20131;-60
2023/10/17 10:20:57;;;;;;;6.38;1.20;;;;;;;;;;5033233;28;20049;-62
2023/10/17 10:23:42;;;;;;;3.10;1.38;;;;;;;;;;5051011;28;20045;-62
2023/10/17 10:26:11;;;;;;;4.43;1.45;;;;;;;;;;5047448;28;20041;-62
2023/10/17 10:28:38;;;;;;;6.03;1.60;;;;;;;;;;5051215;28;20033;-62
2023/10/17 10:31:22;;;;;;;3.80;1.40;;;;;;;;;;5051418;28;20044;-62
2023/10/17 10:33:49;;;;;;;3.33;1.50;;;;;;;;;;5050429;28;20045;-61
2023/10/17 10:36:24;;;;;;;5.07;1.30;;;;;;;;;;5051285;28;20044;-60
2023/10/17 10:38:54;;;;;;;4.00;1.50;;;;;;;;;;5051353;28;20059;-60
2023/10/17 10:41:22;;;;;;;2.33;1.20;;;;;;;;;;5050695;28;20048;-60
2023/10/17 10:43:48;;;;;;;2.78;1.08;;;;;;;;;;5051005;28;20052;-60
2023/10/17 10:46:15;;;;;;;4.95;1.48;;;;;;;;;;5051376;28;20037;-60
2023/10/17 10:48:51;;;;;;;2.95;1.00;;;;;;;;;;5050128;28;20047;-61
2023/10/17 10:51:17;;;;;;;5.75;0.93;;;;;;;;;;5051449;28;20091;-58
2023/10/17 10:53:44;;;;;;;2.80;0.80;;;;;;;;;;5050554;28;20128;-59
2023/10/17 10:56:15;;;;;;;5.18;1.10;;;;;;;;;;5050532;28;20057;-60
2023/10/17 10:58:51;;;;;;;2.42;0.88;;;;;;;;;;5050956;28;20106;-59
2023/10/17 11:01:18;;;;;;;2.83;1.20;;;;;;;;;;5051136;28;20667;-59
2023/10/17 11:03:46;;;;;;;5.20;0.93;;;;;;;;;;5050604;28;20033;-60
2023/10/17 11:06:13;;;;;;;3.25;1.02;;;;;;;;;;5050999;28;20728;-57
2023/10/17 11:08:46;;;;;;;6.15;0.90;;;;;;;;;;5050273;28;20641;-58
2023/10/17 11:11:16;;;;;;;3.90;0.80;;;;;;;;;;5050671;28;20033;-60
2023/10/17 11:13:46;;;;;;;6.68;1.10;;;;;;;;;;5050503;28;20149;-60
2023/10/17 11:16:19;;;;;;;2.00;0.80;;;;;;;;;;5050790;28;20041;-60
2023/10/17 11:18:46;;;;;;;3.53;0.70;;;;;;;;;;5050185;28;20098;-60
2023/10/17 11:21:12;;;;;;;1.73;0.90;;;;;;;;;;5050501;28;20041;-60
2023/10/17 11:23:46;;;;;;;6.30;1.83;;;;;;;;;;5050688;28;20045;-59
2023/10/17 11:26:13;;;;;;;3.28;1.15;;;;;;;;;;5049471;28;20041;-59
2023/10/17 11:28:46;;;;;;;1.90;0.98;;;;;;;;;;5050358;28;20068;-59
2023/10/17 11:31:21;;;;;;;4.93;1.20;;;;;;;;;;5049977;28;20049;-58
2023/10/17 11:33:53;;;;;;;4.75;1.10;;;;;;;;;;5049990;28;20045;-57
2023/10/17 11:36:20;;;;;;;4.07;1.60;;;;;;;;;;5050557;28;20067;-59
2023/10/17 11:38:57;;;;;;;4.05;1.38;;;;;;;;;;5050221;28;20103;-60
2023/10/17 11:41:46;;;;;;;2.58;0.90;;;;;;;;;;5050107;28;20120;-59
2023/10/17 11:44:10;;;;;;;3.03;1.33;;;;;;;;;;5049534;28;20434;-58
2023/10/17 11:46:39;;;;;;;2.55;1.00;;;;;;;;;;5049613;28;20041;-59
2023/10/17 11:49:21;;;;;;;6.78;1.17;;;;;;;;;;5050234;28;20072;-59
2023/10/17 11:51:58;;;;;;;4.85;1.17;;;;;;;;;;5047214;28;20059;-58
2023/10/17 11:54:24;;;;;;;2.90;1.00;;;;;;;;;;5045652;28;20088;-58
2023/10/17 11:56:50;;;;;;;3.33;1.25;;;;;;;;;;5048753;28;20053;-58
2023/10/17 11:59:18;;;;;;;3.55;1.15;;;;;;;;;;5050450;28;20071;-58
2023/10/17 12:01:53;;;;;;;1.88;1.20;;;;;;;;;;5049674;28;20116;-59
2023/10/17 12:04:20;;;;;;;2.25;0.80;;;;;;;;;;5049993;28;20175;-59
2023/10/17 12:06:47;;;;;;;4.95;1.02;;;;;;;;;;5050093;28;20044;-60
2023/10/17 12:09:22;;;;;;;4.97;1.02;;;;;;;;;;5049622;28;20037;-60
2023/10/17 12:11:50;;;;;;;6.00;1.00;;;;;;;;;;5050309;28;20048;-61
2023/10/17 12:14:19;;;;;;;2.53;1.00;;;;;;;;;;5050258;28;20040;-60
2023/10/17 12:16:55;;;;;;;3.15;1.10;;;;;;;;;;5048770;28;20045;-57
2023/10/17 12:19:26;;;;;;;5.25;1.63;;;;;;;;;;5049792;28;20040;-60
2023/10/17 12:21:53;;;;;;;3.05;1.00;;;;;;;;;;5049556;28;20045;-59
2023/10/17 12:24:34;;;;;;;5.38;1.17;;;;;;;;;;5047541;28;20037;-60
2023/10/17 12:27:00;;;;;;;3.30;0.95;;;;;;;;;;5031908;28;20049;-59
2023/10/17 12:29:28;;;;;;;3.88;1.02;;;;;;;;;;5049814;28;20380;-60
2023/10/17 12:31:55;;;;;;;4.93;1.10;;;;;;;;;;5049788;28;20048;-59
2023/10/17 12:34:22;;;;;;;4.82;1.08;;;;;;;;;;5049880;28;20375;-61
2023/10/17 12:36:48;;;;;;;2.92;1.02;;;;;;;;;;5049777;28;20573;-61
2023/10/17 12:39:16;;;;;;;4.68;1.00;;;;;;;;;;5049420;28;20068;-61
2023/10/17 12:41:42;;;;;;;1.38;0.90;;;;;;;;;;5049349;28;20047;-61
2023/10/17 12:44:09;;;;;;;2.58;1.05;;;;;;;;;;5049747;28;20044;-61
2023/10/17 12:46:35;;;;;;;3.53;1.20;;;;;;;;;;5051240;28;20047;-59
2023/10/17 12:49:01;;;;;;;3.33;1.35;;;;;;;;;;5053377;28;20041;-59
2023/10/17 12:51:27;;;;;;;4.85;1.20;;;;;;;;;;5033775;28;20159;-59
2023/10/17 12:53:54;;;;;;;3.38;1.08;;;;;;;;;;5046884;28;20091;-60
2023/10/17 12:56:20;;;;;;;3.53;1.02;;;;;;;;;;5049785;28;20080;-60
2023/10/17 12:58:47;;;;;;;4.80;1.00;;;;;;;;;;5052916;28;20045;-60
2023/10/17 13:01:13;;;;;;;4.65;1.27;;;;;;;;;;5051792;28;20069;-60
2023/10/17 13:03:39;;;;;;;3.55;1.20;;;;;;;;;;5049806;28;20052;-60
2023/10/17 13:06:13;;;;;;;3.35;1.10;;;;;;;;;;5049185;28;20041;-60
2023/10/17 13:08:40;;;;;;;3.35;1.20;;;;;;;;;;5052884;28;20032;-61
2023/10/17 13:11:06;;;;;;;4.78;1.20;;;;;;;;;;5053087;28;20045;-61
2023/10/17 13:13:33;;;;;;;3.67;1.35;;;;;;;;;;5053059;28;20044;-61
2023/10/17 13:15:59;;;;;;;3.03;1.10;;;;;;;;;;5052696;28;20128;-61
2023/10/17 13:18:28;;;;;;;4.78;1.40;;;;;;;;;;5052836;28;20049;-61
2023/10/17 13:21:02;;;;;;;4.68;1.00;;;;;;;;;;5052637;28;20452;-60
2023/10/17 13:23:29;;;;;;;3.83;1.08;;;;;;;;;;5052446;28;20103;-60
2023/10/17 13:25:55;;;;;;;4.25;1.33;;;;;;;;;;5052152;28;20083;-60
2023/10/17 13:28:21;;;;;;;2.40;0.95;;;;;;;;;;5052400;28;20353;-60
2023/10/17 13:30:48;;;;;;;2.92;1.25;;;;;;;;;;5052222;28;20052;-60
2023/10/17 13:33:14;;;;;;;5.82;1.20;;;;;;;;;;5052500;28;20124;-60
2023/10/17 13:35:40;;;;;;;4.05;1.05;;;;;;;;;;5052422;28;20045;-60
2023/10/17 13:38:06;;;;;;;3.15;0.90;;;;;;;;;;5051435;28;20037;-60
2023/10/17 13:40:32;;;;;;;3.80;1.13;;;;;;;;;;5051908;28;20116;-61
2023/10/17 13:43:00;;;;;;;1.90;1.00;;;;;;;;;;5052337;28;20041;-61
2023/10/17 13:45:27;;;;;;;3.83;1.05;;;;;;;;;;5033803;28;20049;-60
2023/10/17 13:47:54;;;;;;;3.17;0.93;;;;;;;;;;5052538;28;20041;-61
2023/10/17 13:50:21;;;;;;;5.70;1.10;;;;;;;;;;5051795;28;20037;-61
2023/10/17 13:52:48;;;;;;;2.05;0.90;;;;;;;;;;5047342;28;20623;-60
2023/10/17 13:55:23;;;;;;;3.78;0.85;;;;;;;;;;5054399;28;20648;-61
2023/10/17 13:57:49;;;;;;;6.40;1.05;;;;;;;;;;5056130;28;20104;-61
2023/10/17 14:00:19;;;;;;;2.70;1.10;;;;;;;;;;5061274;28;20042;-61
2023/10/17 14:02:49;;;;;;;5.07;1.27;;;;;;;;;;5059697;28;20076;-62
2023/10/17 14:05:16;;;;;;;4.22;1.20;;;;;;;;;;5059466;28;20550;-60
2023/10/17 14:07:43;;;;;;;4.80;0.98;;;;;;;;;;5051868;28;20091;-61
2023/10/17 14:10:10;;;;;;;3.38;1.25;;;;;;;;;;5051871;28;20088;-61
2023/10/17 14:12:46;;;;;;;5.30;1.77;;;;;;;;;;5051809;28;20495;-61
2023/10/17 14:15:13;;;;;;;5.85;1.00;;;;;;;;;;5051290;28;20037;-62
2023/10/17 14:17:45;;;;;;;4.43;1.30;;;;;;;;;;5051428;28;20048;-60
2023/10/17 14:20:38;;;;;;;4.50;1.02;;;;;;;;;;5051806;28;20110;-61
2023/10/17 14:23:08;;;;;;;2.95;1.13;;;;;;;;;;5051326;28;20056;-58
2023/10/17 14:28:21;;;;;;;4.30;1.45;;;;;;;;;;5038241;28;20044;-60
2023/10/17 14:30:47;;;;;;;1.73;1.20;;;;;;;;;;5050239;28;20048;-60
2023/10/17 14:33:14;;;;;;;1.15;1.00;;;;;;;;;;5051667;28;20048;-58
2023/10/17 14:35:43;;;;;;;1.35;1.05;;;;;;;;;;5051536;28;20045;-59
2023/10/17 14:38:09;;;;;;;2.15;1.27;;;;;;;;;;5051029;28;20045;-58
2023/10/17 14:40:35;;;;;;;4.82;1.60;;;;;;;;;;5051482;28;20033;-59
2023/10/17 14:43:02;;;;;;;4.60;1.40;;;;;;;;;;5051147;28;20048;-59
2023/10/17 14:45:28;;;;;;;1.83;1.30;;;;;;;;;;5050671;28;20032;-60
2023/10/17 14:47:55;;;;;;;3.67;1.23;;;;;;;;;;5051156;28;20071;-60
2023/10/17 14:50:21;;;;;;;4.00;1.48;;;;;;;;;;5051574;28;20041;-57
2023/10/17 14:52:47;;;;;;;3.08;1.38;;;;;;;;;;5033116;28;20037;-56
2023/10/17 14:55:23;;;;;;;3.33;1.33;;;;;;;;;;5051217;28;20139;-58
2023/10/17 14:57:50;;;;;;;3.38;1.63;;;;;;;;;;5051194;28;20080;-57
2023/10/17 15:00:16;;;;;;;2.22;1.50;;;;;;;;;;5051291;28;20561;-56
2023/10/17 15:02:47;;;;;;;1.85;1.17;;;;;;;;;;5051656;28;20095;-56
2023/10/17 15:05:14;;;;;;;3.45;1.20;;;;;;;;;;5051617;28;20114;-57
2023/10/17 15:07:40;;;;;;;4.88;2.05;;;;;;;;;;5051227;28;20040;-57
2023/10/17 15:10:11;;;;;;;5.80;1.70;;;;;;;;;;5051056;28;20037;-57
2023/10/17 15:12:41;;;;;;;4.78;1.95;;;;;;;;;;5051429;28;20041;-57
2023/10/17 15:15:11;;;;;;;4.85;1.77;;;;;;;;;;5050956;28;20063;-57
2023/10/17 15:17:38;;;;;;;2.08;1.58;;;;;;;;;;5051318;28;20037;-57
2023/10/17 15:20:05;;;;;;;3.15;1.48;;;;;;;;;;5051114;28;20041;-57
2023/10/17 15:22:31;;;;;;;3.90;1.80;;;;;;;;;;5051028;28;20055;-56
2023/10/17 15:24:58;;;;;;;2.33;1.77;;;;;;;;;;5033108;28;20679;-58
2023/10/17 15:27:24;;;;;;;7.40;1.80;;;;;;;;;;5051271;28;20044;-58
2023/10/17 15:29:50;;;;;;;4.32;2.38;;;;;;;;;;5050694;28;20037;-57
2023/10/17 15:32:16;;;;;;;2.90;1.77;;;;;;;;;;5051144;28;20583;-57
2023/10/17 15:34:45;;;;;;;5.35;2.28;;;;;;;;;;5051269;28;20083;-58
2023/10/17 15:37:12;;;;;;;5.75;1.98;;;;;;;;;;5050818;28;20108;-57
2023/10/17 15:39:38;;;;;;;5.03;2.25;;;;;;;;;;5051021;28;20041;-56
2023/10/17 15:42:04;;;;;;;5.38;2.40;;;;;;;;;;5050835;28;20044;-57
2023/10/17 15:44:35;;;;;;;4.47;2.20;;;;;;;;;;5050645;28;20124;-57
2023/10/17 15:47:02;;;;;;;5.35;2.20;;;;;;;;;;5033000;28;20037;-58
2023/10/17 15:49:28;;;;;;;3.92;2.08;;;;;;;;;;5050753;28;20045;-57
2023/10/17 15:51:54;;;;;;;3.95;2.15;;;;;;;;;;5050490;28;20086;-56
2023/10/17 15:54:20;;;;;;;3.97;1.73;;;;;;;;;;5050454;28;20198;-56
2023/10/17 15:56:46;;;;;;;2.92;1.80;;;;;;;;;;5032989;28;20124;-56
2023/10/17 15:59:15;;;;;;;3.03;1.48;;;;;;;;;;5050535;28;20041;-56
2023/10/17 16:01:41;;;;;;;5.25;1.70;;;;;;;;;;5050991;28;20052;-57
2023/10/17 16:04:08;;;;;;;6.97;1.75;;;;;;;;;;5050687;28;20613;-57
2023/10/17 16:06:34;;;;;;;4.10;1.88;;;;;;;;;;5050207;28;20110;-57
2023/10/17 16:09:00;;;;;;;4.35;2.00;;;;;;;;;;5050486;28;20037;-56
2023/10/17 16:11:27;;;;;;;3.25;1.70;;;;;;;;;;5050760;28;20041;-56
2023/10/17 16:13:53;;;;;;;4.20;1.83;;;;;;;;;;5050449;28;20081;-57
2023/10/17 16:16:19;;;;;;;2.88;1.60;;;;;;;;;;5050542;28;20044;-57
2023/10/17 16:18:45;;;;;;;6.03;1.75;;;;;;;;;;5050536;28;20045;-57
2023/10/17 16:21:11;;;;;;;3.33;1.70;;;;;;;;;;5051558;28;20047;-58
2023/10/17 16:23:38;;;;;;;5.53;1.90;;;;;;;;;;5054315;28;20491;-57
2023/10/17 16:26:05;;;;;;;3.72;1.92;;;;;;;;;;5054516;28;20041;-56
2023/10/17 16:28:32;;;;;;;5.13;1.70;;;;;;;;;;5054015;28;20051;-57
2023/10/17 16:30:58;;;;;;;3.17;1.60;;;;;;;;;;5054398;28;20521;-57
2023/10/17 16:33:26;;;;;;;2.67;1.60;;;;;;;;;;5054440;28;20041;-57
2023/10/17 16:36:00;;;;;;;5.90;1.67;;;;;;;;;;5053936;28;20037;-54
2023/10/17 16:38:26;;;;;;;7.70;2.08;;;;;;;;;;5054387;28;20127;-57
2023/10/17 16:40:54;;;;;;;4.55;2.22;;;;;;;;;;5054206;28;20045;-58
2023/10/17 16:43:24;;;;;;;3.08;1.98;;;;;;;;;;5053759;28;20075;-55
2023/10/17 16:45:52;;;;;;;5.35;2.25;;;;;;;;;;5054127;28;20132;-57
2023/10/17 16:48:18;;;;;;;4.15;1.80;;;;;;;;;;5054315;28;20072;-57
2023/10/17 16:50:49;;;;;;;2.88;1.90;;;;;;;;;;5053810;28;20045;-56
2023/10/17 16:53:15;;;;;;;2.95;2.08;;;;;;;;;;5053857;28;20111;-57
2023/10/17 16:55:42;;;;;;;4.25;1.80;;;;;;;;;;5053898;28;20076;-57
2023/10/17 16:58:08;;;;;;;4.07;2.00;;;;;;;;;;5053577;28;20114;-56
2023/10/17 17:00:36;;;;;;;4.50;1.90;;;;;;;;;;5053916;28;20499;-56
2023/10/17 17:03:02;;;;;;;4.50;2.13;;;;;;;;;;5053353;28;20059;-56
2023/10/17 17:05:29;;;;;;;6.15;1.70;;;;;;;;;;5053374;28;20032;-57
2023/10/17 17:07:55;;;;;;;4.38;2.00;;;;;;;;;;5053886;28;20087;-56
2023/10/17 17:10:21;;;;;;;2.75;1.92;;;;;;;;;;5053821;28;20124;-57
2023/10/17 17:12:47;;;;;;;7.22;1.95;;;;;;;;;;5053486;28;20068;-57